createdAt,value
2023-02-24T00:04:22.009Z,7.82
2023-02-24T00:09:27.401Z,7.78
2023-02-24T00:14:30.682Z,7.68
2023-02-24T00:19:35.252Z,7.70
2023-02-24T00:24:37.306Z,7.73
2023-02-24T00:29:40.796Z,7.76
2023-02-24T00:34:43.233Z,8.01
2023-02-24T00:39:45.018Z,7.81
2023-02-24T00:44:47.845Z,7.84
2023-02-24T00:49:50.374Z,7.92
2023-02-24T00:54:52.017Z,7.75
2023-02-24T00:59:53.547Z,7.66
2023-02-24T01:04:55.052Z,7.69
2023-02-24T01:09:57.552Z,7.88
2023-02-24T01:14:59.459Z,7.64
2023-02-24T01:20:16.352Z,7.63
2023-02-24T01:25:20.270Z,7.64
2023-02-24T01:30:21.883Z,7.48
2023-02-24T01:35:25.578Z,7.48
2023-02-24T01:40:27.580Z,7.46
2023-02-24T01:45:29.665Z,7.22
2023-02-24T01:50:35.597Z,7.57
2023-02-24T01:55:40.903Z,7.40
2023-02-24T02:00:46.936Z,7.42
2023-02-24T02:05:49.480Z,7.48
2023-02-24T02:10:58.620Z,7.41
2023-02-24T02:16:13.829Z,7.28
2023-02-24T02:21:32.969Z,7.43
2023-02-24T02:26:35.710Z,7.21
2023-02-24T02:31:51.069Z,7.04
2023-02-24T02:36:57.035Z,7.15
2023-02-24T02:42:14.941Z,7.07
2023-02-24T02:47:18.577Z,7.07
2023-02-24T02:52:27.092Z,7.25
2023-02-24T02:57:30.612Z,7.22
2023-02-24T03:02:38.298Z,7.26
2023-02-24T03:07:42.890Z,6.96
2023-02-24T03:12:47.469Z,6.92
2023-02-24T03:17:55.659Z,6.87
2023-02-24T03:23:07.325Z,6.22
2023-02-24T03:28:16.479Z,6.05
2023-02-24T03:33:23.843Z,5.91
2023-02-24T03:38:25.342Z,5.79
2023-02-24T03:43:30.155Z,5.79
2023-02-24T03:48:34.916Z,5.87
2023-02-24T03:53:55.025Z,5.81
2023-02-24T03:58:56.832Z,5.75
2023-02-24T04:04:12.040Z,5.65
2023-02-24T04:09:39.467Z,5.59
2023-02-24T04:14:57.917Z,5.77
2023-02-24T04:20:02.065Z,5.70
2023-02-24T04:25:13.654Z,5.60
2023-02-24T04:30:17.043Z,5.63
2023-02-24T04:35:21.066Z,5.73
2023-02-24T04:40:25.127Z,5.75
2023-02-24T04:45:28.289Z,5.82
2023-02-24T04:50:31.297Z,5.78
2023-02-24T04:55:40.144Z,5.90
2023-02-24T05:00:42.314Z,6.16
2023-02-24T05:05:51.985Z,5.90
2023-02-24T05:10:54.077Z,5.81
2023-02-24T05:15:58.191Z,5.78
2023-02-24T05:21:22.805Z,5.84
2023-02-24T05:26:25.667Z,5.97
2023-02-24T05:31:28.868Z,6.04
2023-02-24T05:36:32.225Z,5.72
2023-02-24T05:41:38.635Z,5.51
2023-02-24T05:46:41.297Z,5.30
2023-02-24T05:51:54.695Z,5.17
2023-02-24T05:57:00.571Z,5.17
2023-02-24T06:02:09.181Z,4.79
2023-02-24T06:07:22.094Z,4.68
2023-02-24T06:12:25.686Z,4.67
2023-02-24T06:17:27.942Z,4.32
2023-02-24T06:22:29.518Z,4.05
2023-02-24T06:27:31.034Z,3.98
2023-02-24T06:32:32.668Z,3.94
2023-02-24T06:37:35.820Z,3.80
2023-02-24T06:42:39.251Z,3.72
2023-02-24T06:47:42.817Z,3.68
2023-02-24T06:52:45.989Z,3.79
2023-02-24T06:57:50.056Z,3.57
2023-02-24T07:02:51.561Z,3.73
2023-02-24T07:07:53.104Z,3.66
2023-02-24T07:12:54.737Z,3.52
2023-02-24T07:17:56.317Z,3.46
2023-02-24T07:22:58.794Z,3.43
2023-02-24T07:28:03.775Z,3.57
2023-02-24T07:33:07.958Z,3.45
2023-02-24T07:38:09.632Z,3.24
2023-02-24T07:43:11.130Z,3.16
2023-02-24T07:48:14.583Z,3.17
2023-02-24T07:53:16.527Z,3.12
2023-02-24T07:58:18.622Z,3.09
2023-02-24T08:03:20.232Z,3.12
2023-02-24T08:08:25.622Z,2.96
2023-02-24T08:13:31.549Z,3.16
2023-02-24T08:18:37.338Z,2.94
2023-02-24T08:23:58.630Z,3.40
2023-02-24T08:29:00.134Z,3.39
2023-02-24T08:34:01.699Z,3.14
2023-02-24T08:39:03.879Z,3.22
2023-02-24T08:44:05.374Z,3.36
2023-02-24T08:49:10.894Z,3.34
2023-02-24T08:54:35.300Z,3.46
2023-02-24T09:00:06.672Z,3.60
2023-02-24T09:05:14.594Z,3.46
2023-02-24T09:10:19.604Z,3.41
2023-02-24T09:15:26.315Z,3.52
2023-02-24T09:20:27.864Z,4.10
2023-02-24T09:25:49.353Z,4.03
2023-02-24T09:30:55.434Z,3.97
2023-02-24T09:36:04.706Z,3.83
2023-02-24T09:41:56.218Z,4.01
2023-02-24T09:47:08.775Z,4.03
2023-02-24T09:52:19.179Z,3.89
2023-02-24T09:57:25.426Z,4.27
2023-02-24T10:02:28.272Z,4.34
2023-02-24T10:07:40.495Z,4.48
2023-02-24T10:12:42.380Z,4.84
2023-02-24T10:17:47.333Z,4.84
2023-02-24T10:22:55.148Z,5.00
2023-02-24T10:27:59.414Z,5.50
2023-02-24T10:33:05.413Z,5.50
2023-02-24T10:38:07.025Z,5.93
2023-02-24T10:43:10.600Z,5.85
2023-02-24T10:48:40.614Z,6.00
2023-02-24T10:53:46.318Z,5.85
2023-02-24T10:58:50.672Z,5.93
2023-02-24T11:04:01.694Z,5.90
2023-02-24T11:09:19.410Z,5.73
2023-02-24T11:14:39.693Z,5.94
2023-02-24T11:19:47.698Z,6.07
2023-02-24T11:24:50.439Z,6.08
2023-02-24T11:30:06.308Z,6.57
2023-02-24T11:35:12.813Z,6.66
2023-02-24T11:40:23.843Z,6.50
2023-02-24T11:45:43.429Z,6.83
2023-02-24T11:50:47.217Z,6.68
2023-02-24T11:55:51.590Z,7.15
2023-02-24T12:00:59.379Z,7.00
2023-02-24T12:06:12.870Z,6.89
2023-02-24T12:11:25.970Z,6.65
2023-02-24T12:16:33.741Z,6.49
2023-02-24T12:21:44.516Z,6.48
2023-02-24T12:27:07.959Z,6.71
2023-02-24T12:32:18.854Z,6.72
2023-02-24T12:37:38.735Z,6.47
2023-02-24T12:42:40.363Z,6.35
2023-02-24T12:47:50.934Z,6.15
2023-02-24T12:52:55.382Z,6.19
2023-02-24T12:58:04.910Z,6.43
2023-02-24T13:03:19.848Z,6.38
2023-02-24T13:08:32.888Z,6.38
2023-02-24T13:13:42.901Z,6.25
2023-02-24T13:18:45.368Z,6.29
2023-02-24T13:23:57.817Z,6.62
2023-02-24T13:29:09.327Z,6.72
2023-02-24T13:34:28.898Z,6.85
2023-02-24T13:45:58.079Z,6.83
2023-02-24T13:51:06.027Z,6.85
2023-02-24T13:56:10.884Z,6.83
2023-02-24T14:01:14.270Z,6.84
2023-02-24T14:06:26.491Z,6.70
2023-02-24T14:11:33.466Z,6.58
2023-02-24T14:16:53.703Z,6.36
2023-02-24T14:21:59.133Z,6.32
2023-02-24T14:27:04.733Z,6.22
2023-02-24T14:32:09.184Z,6.03
2023-02-24T14:37:16.506Z,5.74
2023-02-24T14:42:19.427Z,5.73
2023-02-24T14:47:22.633Z,5.72
2023-02-24T14:52:33.387Z,5.92
2023-02-24T14:57:40.538Z,5.95
2023-02-24T15:02:46.314Z,5.91
2023-02-24T15:07:51.958Z,5.87
2023-02-24T15:13:00.966Z,5.84
2023-02-24T15:18:08.596Z,5.76
2023-02-24T15:23:36.694Z,5.86
2023-02-24T15:28:38.432Z,6.27
2023-02-24T15:33:41.615Z,6.15
2023-02-24T15:38:44.239Z,6.41
2023-02-24T15:43:53.176Z,5.97
2023-02-24T15:48:56.426Z,5.94
2023-02-24T15:54:01.084Z,5.69
2023-02-24T15:59:03.376Z,5.35
2023-02-24T16:04:05.756Z,5.25
2023-02-24T16:09:08.082Z,4.94
2023-02-24T16:14:14.066Z,4.86
2023-02-24T16:19:15.952Z,4.61
2023-02-24T16:24:17.503Z,4.55
2023-02-24T16:29:19.249Z,4.94
2023-02-24T16:34:20.810Z,4.68
2023-02-24T16:39:23.787Z,4.61
2023-02-24T16:44:25.327Z,4.42
2023-02-24T16:49:26.912Z,4.34
2023-02-24T16:54:29.350Z,4.30
2023-02-24T16:59:31.069Z,4.35
2023-02-24T17:04:32.637Z,4.04
2023-02-24T17:09:34.255Z,4.12
2023-02-24T17:14:35.796Z,4.19
2023-02-24T17:19:37.799Z,4.14
2023-02-24T17:24:42.372Z,4.00
2023-02-24T17:29:43.880Z,3.95
2023-02-24T17:34:45.388Z,4.02
2023-02-24T17:39:46.920Z,3.93
2023-02-24T17:44:51.207Z,3.76
2023-02-24T17:49:52.778Z,3.86
2023-02-24T17:54:54.535Z,3.69
2023-02-24T17:59:56.453Z,3.59
2023-02-24T18:04:58.127Z,3.58
2023-02-24T18:09:59.851Z,3.58
2023-02-24T18:15:11.136Z,3.52
2023-02-24T18:20:15.318Z,3.59
2023-02-24T18:25:16.961Z,3.52
2023-02-24T18:30:18.699Z,3.49
2023-02-24T18:35:21.951Z,3.34
2023-02-24T18:40:31.001Z,3.24
2023-02-24T18:45:35.144Z,3.27
2023-02-24T18:50:36.943Z,3.21
2023-02-24T18:55:40.876Z,3.16
2023-02-24T19:00:43.489Z,2.98
2023-02-24T19:05:45.360Z,2.94
2023-02-24T19:10:49.979Z,2.91
2023-02-24T19:15:52.828Z,2.85
2023-02-24T19:20:54.553Z,2.87
2023-02-24T19:25:59.331Z,2.82
2023-02-24T19:31:00.957Z,2.67
2023-02-24T19:36:02.731Z,2.58
2023-02-24T19:41:29.416Z,2.39
2023-02-24T19:46:33.009Z,2.42
2023-02-24T19:51:35.003Z,2.29
2023-02-24T19:56:37.199Z,2.31
2023-02-24T20:01:40.108Z,2.28
2023-02-24T20:06:45.182Z,2.37
2023-02-24T20:11:48.001Z,2.50
2023-02-24T20:16:49.880Z,2.48
2023-02-24T20:21:51.702Z,2.54
2023-02-24T20:26:53.292Z,2.57
2023-02-24T20:31:54.906Z,2.69
2023-02-24T20:36:56.670Z,2.81
2023-02-24T20:41:58.302Z,2.88
2023-02-24T20:47:00.686Z,2.87
2023-02-24T20:52:02.179Z,2.87
2023-02-24T20:57:03.782Z,2.98
2023-02-24T21:02:05.455Z,2.96
2023-02-24T21:07:08.214Z,2.98
2023-02-24T21:12:09.858Z,2.96
2023-02-24T21:17:12.099Z,3.17
2023-02-24T21:22:13.646Z,3.16
2023-02-24T21:27:15.236Z,3.10
2023-02-24T21:32:17.058Z,3.10
2023-02-24T21:37:18.673Z,3.22
2023-02-24T21:42:22.202Z,3.34
2023-02-24T21:47:23.762Z,3.42
2023-02-24T21:52:25.254Z,3.38
2023-02-24T21:57:26.775Z,3.39
2023-02-24T22:02:28.250Z,3.44
2023-02-24T22:07:29.730Z,3.47
2023-02-24T22:12:31.227Z,3.44
2023-02-24T22:17:33.823Z,3.46
2023-02-24T22:22:38.922Z,3.44
2023-02-24T22:27:40.464Z,3.45
2023-02-24T22:32:42.066Z,3.42
2023-02-24T22:37:43.798Z,3.43
2023-02-24T22:42:45.362Z,3.39
2023-02-24T22:47:47.050Z,3.18
2023-02-24T22:52:49.187Z,3.12
2023-02-24T22:57:50.675Z,3.17
2023-02-24T23:02:52.151Z,3.14
2023-02-24T23:07:53.646Z,3.10
2023-02-24T23:12:55.442Z,3.06
2023-02-24T23:17:56.940Z,3.04
2023-02-24T23:22:58.654Z,3.05
2023-02-24T23:28:00.203Z,3.07
2023-02-24T23:33:03.037Z,3.04
2023-02-24T23:38:04.513Z,3.05
2023-02-24T23:43:06.153Z,2.89
2023-02-24T23:48:12.158Z,2.73
2023-02-24T23:53:13.742Z,2.65
2023-02-24T23:58:16.612Z,2.64
